Latest Weather Observations for Horsham

IDV60801

Issued at 4:32 am EST Thursday 20 September 2018 (issued every 10 minutes, with the page automatically refreshed every 10 minutes)

About weather observations | Map of weather stations | Latest weather observations for VIC | Other Formats
Station Details ID: 079100 Name: HORSHAM AERODROME Lat: -36.67 Lon: 142.17 Height: 133.8 m
Data from the previous 72 hours. | See also: Recent months at Horsham
Date/Time
EST
Temp
°C
App
Temp
°C
Dew
Point
°C
Rel
Hum
%
Delta-T
°C
Wind Press
QNH
hPa
Press
MSL
hPa
Rain since
9am
mm
Dir  Spd
km/h
Gust
km/h
Spd
kts
Gust
kts
20/04:30am 1.6 -2.3 0.9 95 0.3 W 11 13 6 7 1019.6 1019.7 0.2
20/04:00am -0.7 -4.2 -1.5 94 0.2 W 7 9 4 5 1019.6 1019.7 0.2
20/03:30am -0.2 -3.7 -1.0 94 0.3 W 7 9 4 5 1019.5 1019.6 0.2
20/03:00am 2.4 -1.4 1.5 94 0.3 WSW 11 13 6 7 1019.5 1019.6 0.2
20/02:30am 2.7 -0.7 1.8 94 0.4 W 9 11 5 6 1019.6 1019.7 0.2
20/02:00am 2.3 -1.2 1.1 92 0.5 W 9 11 5 6 1019.8 1019.9 0.2
20/01:30am 2.6 -0.9 1.3 91 0.5 WSW 9 9 5 5 1019.9 1020.0 0.2
20/01:00am 3.9 -0.2 2.4 90 0.6 WSW 13 17 7 9 1019.8 1019.9 0.2
20/12:30am 3.7 -0.5 1.9 88 0.7 WSW 13 15 7 8 1019.7 1019.8 0.2
20/12:00am 5.0 0.6 2.9 86 0.9 W 15 19 8 10 1019.5 1019.6 0.2
 
Date/Time
EST
Temp
°C
App
Temp
°C
Dew
Point
°C
Rel
Hum
%
Delta-T
°C
Wind Press
QNH
hPa
Press
MSL
hPa
Rain since
9am
mm
Dir  Spd
km/h
Gust
km/h
Spd
kts
Gust
kts
19/11:30pm 5.5 1.3 3.8 89 0.7 W 15 19 8 10 1019.4 1019.5 0.2
19/11:00pm 4.4 1.2 2.9 90 0.6 W 9 13 5 7 1019.3 1019.4 0.2
19/10:30pm 4.7 0.7 2.7 87 0.8 W 13 15 7 8 1019.3 1019.4 0.2
19/10:00pm 5.0 1.4 3.2 88 0.7 W 11 13 6 7 1019.2 1019.3 0.2
19/09:30pm 5.5 2.5 4.0 90 0.6 W 9 11 5 6 1018.9 1019.0 0.2
19/09:00pm 3.0 -0.5 1.1 87 0.7 WNW 9 11 5 6 1018.7 1018.8 0.2
19/08:30pm 4.6 1.2 2.1 84 1.0 WSW 9 11 5 6 1018.5 1018.6 0.2
19/08:00pm 6.6 3.2 3.9 83 1.2 SW 11 13 6 7 1018.2 1018.3 0.2
19/07:30pm 6.8 3.8 3.9 82 1.2 SW 9 11 5 6 1017.8 1017.9 0.2
19/07:00pm 7.7 4.3 3.9 77 1.6 SW 11 15 6 8 1017.6 1017.7 0.2
19/06:30pm 9.4 5.2 4.0 69 2.4 WSW 15 19 8 10 1017.2 1017.3 0.2
19/06:00pm 11.3 6.3 3.6 59 3.4 WSW 19 26 10 14 1016.9 1017.0 0.2
19/05:30pm 11.5 6.2 3.0 56 3.7 WSW 20 26 11 14 1016.6 1016.7 0.2
19/05:00pm 11.6 5.0 4.1 60 3.4 WSW 28 35 15 19 1016.3 1016.4 0.2
19/04:30pm 13.3 6.3 2.2 47 4.9 WSW 28 35 15 19 1015.9 1016.0 0.2
19/04:00pm 13.7 6.8 2.6 47 4.9 SW 28 35 15 19 1015.8 1015.9 0.2
19/03:30pm 13.0 6.4 2.0 47 4.8 WSW 26 33 14 18 1015.7 1015.8 0.2
19/03:00pm 13.1 6.9 4.5 56 4.0 SW 26 32 14 17 1015.6 1015.7 0.2
19/02:30pm 12.8 7.9 4.0 55 4.0 SSW 19 26 10 14 1015.3 1015.4 0.2
19/02:00pm 14.5 8.4 3.0 46 5.2 W 24 39 13 21 1015.4 1015.5 0.2
19/01:30pm 12.0 6.5 4.2 59 3.5 SW 22 33 12 18 1015.6 1015.7 0.2
19/01:00pm 13.4 7.5 1.7 45 5.1 SW 22 30 12 16 1015.5 1015.6 0.2
19/12:30pm 13.2 7.4 2.1 47 4.9 WSW 22 30 12 16 1015.7 1015.8 0.0
19/12:00pm 13.4 7.6 2.3 47 4.9 WSW 22 33 12 18 1015.8 1015.9 0.0
19/11:30am 12.9 7.2 2.7 50 4.5 WSW 22 30 12 16 1015.7 1015.8 0.0
19/11:00am 11.7 6.1 3.2 56 3.8 WSW 22 30 12 16 1015.9 1016.0 0.0
19/10:30am 12.5 7.1 4.7 59 3.6 SW 22 33 12 18 1015.9 1016.0 0.0
19/10:00am 11.0 5.6 4.5 64 2.9 SW 22 30 12 16 1015.9 1016.0 0.0
19/09:30am 10.3 5.5 5.7 73 2.1 SW 20 28 11 15 1015.8 1015.9 0.0
19/09:00am 8.7 4.4 5.4 80 1.5 WSW 17 22 9 12 1015.5 1015.6 0.0
19/08:30am 7.1 2.9 5.7 91 0.6 W 17 20 9 11 1015.2 1015.3 0.0
19/08:00am 5.7 2.2 5.3 97 0.2 W 13 19 7 10 1014.9 1015.0 0.0
19/07:30am 2.9 0.0 2.5 97 0.2 SW 7 9 4 5 1014.5 1014.5 0.0
19/07:00am 2.7 -1.0 2.3 97 0.2 W 11 13 6 7 1014.0 1014.0 0.0
19/06:30am 1.5 -2.8 0.9 96 0.2 W 13 15 7 8 1013.6 1013.6 0.0
19/06:00am 1.4 -3.3 0.8 96 0.2 W 15 17 8 9 1013.2 1013.3 0.0
19/05:30am 0.9 -3.5 0.3 96 0.2 W 13 15 7 8 1012.7 1012.8 0.0
19/05:00am 1.9 -2.4 1.3 96 0.2 W 13 15 7 8 1012.6 1012.7 0.0
19/04:30am 3.1 -1.0 2.5 96 0.2 W 13 15 7 8 1012.3 1012.4 0.0
19/04:00am 3.1 -1.0 2.4 95 0.3 W 13 17 7 9 1012.0 1012.1 0.0
19/03:30am 4.1 -0.2 3.2 94 0.4 W 15 20 8 11 1011.8 1011.9 0.0
19/03:00am 4.7 -0.3 3.8 94 0.4 W 19 24 10 13 1011.9 1012.0 0.0
19/02:30am 4.5 -0.7 3.6 94 0.4 W 20 24 11 13 1011.7 1011.8 0.0
19/02:00am 4.8 -0.2 3.8 93 0.4 W 19 24 10 13 1012.1 1012.2 0.0
19/01:30am 4.7 -0.5 3.7 93 0.4 WNW 20 24 11 13 1012.1 1012.2 0.0
19/01:00am 5.0 -0.2 3.7 91 0.5 WNW 20 26 11 14 1012.1 1012.2 0.0
19/12:30am 5.8 0.9 4.1 89 0.7 W 19 22 10 12 1012.0 1012.1 0.0
19/12:00am 6.7 1.8 5.0 89 0.8 W 20 28 11 15 1012.0 1012.1 0.0
 
Date/Time
EST
Temp
°C
App
Temp
°C
Dew
Point
°C
Rel
Hum
%
Delta-T
°C
Wind Press
QNH
hPa
Press
MSL
hPa
Rain since
9am
mm
Dir  Spd
km/h
Gust
km/h
Spd
kts
Gust
kts
18/11:30pm 6.8 1.6 5.6 92 0.5 WNW 22 35 12 19 1012.3 1012.4 0.0
18/11:00pm 5.4 1.0 4.5 94 0.4 WNW 17 19 9 10 1012.1 1012.2 0.0
18/10:30pm 4.6 1.5 3.4 92 0.5 NW 9 13 5 7 1012.1 1012.2 0.0
18/10:00pm 5.2 2.2 3.9 91 0.6 NW 9 11 5 6 1012.1 1012.2 0.0
18/09:30pm 6.0 2.3 4.5 90 0.6 WNW 13 17 7 9 1012.1 1012.2 0.0
18/09:00pm 6.9 3.0 5.4 90 0.7 WNW 15 17 8 9 1012.1 1012.2 0.0
18/08:30pm 8.0 4.6 6.1 88 0.9 NW 13 15 7 8 1012.0 1012.1 0.0
18/08:00pm 9.1 5.1 6.7 85 1.1 W 17 22 9 12 1011.8 1011.9 0.0
18/07:30pm 9.5 3.8 6.8 83 1.3 W 26 39 14 21 1011.4 1011.5 0.0
18/07:00pm 9.5 4.3 7.3 86 1.0 WNW 24 32 13 17 1011.0 1011.1 0.0
18/06:30pm 9.6 5.5 7.9 89 0.8 WNW 19 22 10 12 1010.8 1010.9 0.0
18/06:00pm 9.7 5.6 8.0 89 0.8 W 19 28 10 15 1010.4 1010.5 0.0
18/05:30pm 9.8 4.3 7.7 87 1.0 WSW 26 39 14 21 1010.4 1010.5 0.0
18/05:01pm 12.8 6.3 6.4 65 3.1 W 30 50 16 27 1010.2 1010.3 0.0
18/05:00pm 13.3 7.1 6.2 62 3.4 W 28 43 15 23 1010.0 1010.1 0.0
18/04:30pm 13.9 7.6 5.8 58 3.9 WSW 28 39 15 21 1009.5 1009.6 0.0
18/04:00pm 14.3 5.5 5.7 56 4.1 W 41 54 22 29 1009.3 1009.4 0.0
18/03:43pm 17.0 8.5 3.0 39 6.5 WNW 37 52 20 28 1008.8 1008.9 0.0
18/03:30pm 17.1 9.0 3.1 39 6.5 WNW 35 46 19 25 1008.7 1008.8 0.0
18/03:26pm 16.7 8.8 2.3 38 6.5 WNW 33 46 18 25 1008.6 1008.7 0.0
18/03:18pm 16.3 7.5 1.6 37 6.5 WNW 37 48 20 26 1008.8 1008.9 0.0
18/03:00pm 16.8 8.3 0.9 34 7.0 WNW 35 48 19 26 1008.9 1009.0 0.0
18/02:30pm 17.7 9.8 2.1 35 7.1 W 33 50 18 27 1009.0 1009.1 0.0
18/02:28pm 18.3 10.5 1.8 33 7.5 WNW 32 50 17 27 1009.0 1009.1 0.0
18/02:24pm 16.7 9.3 1.6 36 6.7 WNW 30 44 16 24 1009.1 1009.2 0.0
18/02:00pm 17.7 8.6 2.1 35 7.1 NW 39 48 21 26 1009.0 1009.1 0.0
18/01:30pm 16.4 7.8 2.8 40 6.2 NW 37 52 20 28 1009.3 1009.4 0.0
18/01:15pm 16.2 7.8 3.9 44 5.7 NW 37 52 20 28 1009.2 1009.3 0.0
18/01:00pm 16.0 11.4 6.4 53 4.7 WNW 20 32 11 17 1009.4 1009.5 0.0
18/12:30pm 15.2 9.0 6.0 54 4.5 NW 28 39 15 21 1010.0 1010.1 0.0
18/12:00pm 14.8 8.4 5.3 53 4.5 WNW 28 37 15 20 1010.0 1010.1 0.0
18/11:30am 14.7 9.2 6.0 56 4.2 NW 24 33 13 18 1010.3 1010.4 0.0
18/11:00am 13.8 8.2 5.4 57 4.0 WNW 24 33 13 18 1010.4 1010.5 0.0
18/10:30am 13.8 7.1 3.6 50 4.6 WNW 28 35 15 19 1010.6 1010.7 0.0
18/10:00am 14.4 8.5 3.8 49 4.9 NW 24 33 13 18 1010.5 1010.6 0.0
18/09:30am 12.3 3.9 -2.3 36 5.7 NW 32 41 17 22 1010.4 1010.5 0.0
18/09:00am 12.2 4.0 -3.6 33 6.0 NNW 30 41 16 22 1010.4 1010.5 0.0
18/08:30am 9.0 2.1 -2.6 44 4.4 NNW 24 32 13 17 1010.3 1010.4 0.0
18/08:00am 7.8 0.5 -2.8 47 3.9 N 26 32 14 17 1010.1 1010.2 0.0
18/07:30am 6.8 -0.2 -3.1 49 3.6 N 24 28 13 15 1009.9 1010.0 0.0
18/07:00am 5.1 -1.1 -3.2 55 2.9 N 20 24 11 13 1010.1 1010.2 0.0
18/06:30am 4.6 -1.7 -3.6 55 2.9 N 20 24 11 13 1010.0 1010.1 0.0
18/06:00am 4.9 -1.7 -3.6 54 3.0 N 22 28 12 15 1009.7 1009.8 0.0
18/05:30am 5.1 -1.5 -3.2 55 2.9 N 22 26 12 14 1009.8 1009.9 0.0
18/05:00am 5.4 -0.8 -3.1 54 3.0 N 20 26 11 14 1009.8 1009.9 0.0
18/04:30am 5.7 -0.9 -3.1 53 3.1 N 22 28 12 15 1009.9 1010.0 0.0
18/04:00am 6.7 -0.3 -3.2 49 3.6 N 24 30 13 16 1009.9 1010.0 0.0
18/03:30am 6.6 0.0 -3.1 50 3.5 N 22 28 12 15 1010.0 1010.1 0.0
18/03:00am 6.3 0.1 -2.8 52 3.3 N 20 24 11 13 1010.5 1010.6 0.0
18/02:30am 7.1 0.5 -2.9 49 3.7 N 22 28 12 15 1011.0 1011.1 0.0
18/02:00am 7.5 0.6 -2.5 49 3.7 N 24 28 13 15 1011.4 1011.5 0.0
18/01:30am 8.0 0.8 -2.0 49 3.8 N 26 32 14 17 1011.7 1011.8 0.0
18/01:00am 8.1 1.3 -1.7 50 3.7 N 24 30 13 16 1012.1 1012.2 0.0
18/12:30am 7.3 1.0 -1.1 55 3.2 N 22 26 12 14 1012.4 1012.5 0.0
18/12:00am 5.6 -0.3 -0.7 64 2.4 N 20 20 11 11 1012.8 1012.9 0.0
 
Date/Time
EST
Temp
°C
App
Temp
°C
Dew
Point
°C
Rel
Hum
%
Delta-T
°C
Wind Press
QNH
hPa
Press
MSL
hPa
Rain since
9am
mm
Dir  Spd
km/h
Gust
km/h
Spd
kts
Gust
kts
17/11:30pm 5.3 0.0 -0.9 64 2.3 N 17 19 9 10 1013.1 1013.2 0.0
17/11:00pm 5.9 1.0 -0.8 62 2.5 N 15 17 8 9 1013.3 1013.4 0.0
17/10:30pm 7.0 2.0 -0.9 57 3.0 NNE 15 19 8 10 1013.4 1013.5 0.0
17/10:00pm 9.0 3.6 -1.4 48 4.0 NNE 17 22 9 12 1013.4 1013.5 0.0
17/09:30pm 9.8 3.5 -1.3 46 4.3 NNE 22 26 12 14 1013.4 1013.5 0.0
17/09:00pm 8.8 2.9 -1.0 50 3.8 NNE 20 24 11 13 1013.4 1013.5 0.0
17/08:30pm 7.9 2.0 -0.8 54 3.4 NNE 20 22 11 12 1013.9 1013.9 0.0
17/08:00pm 8.6 2.9 -0.7 52 3.6 NNE 19 24 10 13 1014.1 1014.1 0.0
17/07:30pm 9.3 3.5 0.0 52 3.7 NNE 20 20 11 11 1014.2 1014.2 0.0
17/07:00pm 10.2 4.6 -0.3 48 4.2 NNE 19 20 10 11 1014.2 1014.2 0.0
17/06:30pm 12.1 6.5 -0.1 43 5.0 N 19 19 10 10 1014.3 1014.3 0.0
17/06:00pm 15.3 9.5 -0.4 34 6.6 N 20 26 11 14 1014.1 1014.1 0.0
17/05:30pm 17.6 10.5 -1.1 28 8.0 N 26 35 14 19 1014.2 1014.2 0.0
17/05:00pm 17.7 9.8 -1.5 27 8.1 NNW 30 35 16 19 1014.5 1014.5 0.0
17/04:30pm 18.3 10.1 -1.0 27 8.3 NNW 32 39 17 21 1014.6 1014.6 0.0
17/04:00pm 18.1 9.9 -1.2 27 8.2 NNW 32 41 17 22 1014.8 1014.9 0.0
17/03:30pm 18.8 11.6 0.4 29 8.2 N 28 44 15 24 1015.3 1015.4 0.0
17/03:00pm 17.9 11.0 0.1 30 7.8 N 26 39 14 21 1015.6 1015.7 0.0
17/02:30pm 18.3 11.7 -0.5 28 8.2 NNW 24 39 13 21 1016.2 1016.3 0.0
17/02:01pm 18.4 11.0 -0.4 28 8.2 NNW 28 50 15 27 1016.7 1016.8 0.0
17/02:00pm 18.2 10.9 -0.1 29 8.0 NNW 28 39 15 21 1016.8 1016.9 0.0
17/01:30pm 18.3 11.1 0.9 31 7.8 NNW 28 46 15 25 1017.4 1017.5 0.0
17/01:16pm 18.0 10.5 1.1 32 7.6 NW 30 50 16 27 1017.6 1017.7 0.0
17/01:00pm 17.6 10.0 0.7 32 7.5 NNW 30 39 16 21 1017.9 1018.0 0.0
17/12:30pm 17.1 9.3 1.5 35 7.0 NNW 32 44 17 24 1018.6 1018.7 0.0
17/12:00pm 17.0 9.7 2.2 37 6.7 NNW 30 46 16 25 1019.1 1019.2 0.0
17/11:30am 15.9 8.0 2.0 39 6.2 NNW 33 44 18 24 1019.8 1019.9 0.0
17/11:00am 15.3 6.9 1.8 40 6.0 NNW 35 48 19 26 1020.2 1020.3 0.0
17/10:30am 14.7 6.5 2.6 44 5.4 NNW 35 44 19 24 1020.6 1020.7 0.0
17/10:00am 13.7 6.6 3.8 51 4.5 N 30 37 16 20 1021.0 1021.2 0.0
17/09:30am 12.5 6.7 4.2 57 3.8 N 24 33 13 18 1021.4 1021.5 0.0
17/09:00am 10.8 5.1 4.7 66 2.8 N 24 30 13 16 1021.6 1021.7 0.0
17/08:30am 8.6 4.0 6.4 86 1.0 NNE 20 26 11 14 1021.7 1021.8 0.0
17/08:00am 5.2 0.8 4.8 97 0.2 NNE 17 22 9 12 1021.7 1021.8 0.0
17/07:30am 1.4 -2.9 0.8 96 0.2 NNE 13 19 7 10 1021.8 1021.9 0.0
17/07:00am -0.8 -5.1 -1.4 96 0.2 NNE 11 13 6 7 1021.6 1021.7 0.0
17/06:30am -1.2 -5.5 -1.8 96 0.2 NNE 11 13 6 7 1021.5 1021.6 0.0
17/06:00am -0.6 -5.6 -1.2 96 0.2 NNE 15 17 8 9 1021.4 1021.5 0.0
17/05:30am -0.7 -5.7 -1.3 96 0.2 N 15 17 8 9 1021.4 1021.5 0.0
17/05:00am -1.0 -6.4 -1.7 95 0.2 N 17 20 9 11 1021.4 1021.5 0.0

Other Formats:

Comma delimited format used in spreadsheet applications
http://www.bom.gov.au/fwo/IDV60801/IDV60801.95839.axf

JavaScript Object Notation format (JSON) in row-major order
http://www.bom.gov.au/fwo/IDV60801/IDV60801.95839.json